TimeEDT,TemperatureF,Dew PointF,Humidity,Sea Level PressureIn,VisibilityMPH,Wind Direction,Wind SpeedMPH,Gust SpeedMPH,PrecipitationIn,Events,Conditions,WindDirDegrees,DateUTC
12:55 AM,58.5,57.0,95,30.04,10.0,SSE,1.2,-,N/A,,Clear,160,2012-10-06 04:55:00
1:55 AM,57.6,56.1,95,30.03,10.0,East,2.3,-,N/A,,Clear,100,2012-10-06 05:55:00
2:55 AM,56.5,55.2,96,30.02,9.0,NNW,2.3,-,N/A,,Clear,330,2012-10-06 06:55:00
3:55 AM,55.9,54.9,96,30.00,8.0,ENE,1.2,-,N/A,,Clear,60,2012-10-06 07:55:00
4:55 AM,55.6,54.3,96,29.99,9.0,NNE,1.2,-,N/A,,Clear,30,2012-10-06 08:55:00
5:55 AM,54.7,53.6,96,29.99,9.0,NE,1.2,-,N/A,,Clear,50,2012-10-06 09:55:00
6:55 AM,54.1,52.9,95,29.99,9.0,East,1.2,-,N/A,,Clear,90,2012-10-06 10:55:00
7:55 AM,55.2,54.3,97,30.00,6.0,North,2.3,-,N/A,,Clear,360,2012-10-06 11:55:00
8:55 AM,60.8,59.4,95,30.01,6.0,ENE,1.2,-,N/A,,Clear,70,2012-10-06 12:55:00
9:55 AM,72.3,63.5,74,30.00,10.0,SW,8.1,-,N/A,,Clear,230,2012-10-06 13:55:00
10:55 AM,76.5,63.0,63,29.99,10.0,West,8.1,-,N/A,,Clear,270,2012-10-06 14:55:00
11:55 AM,80.1,60.1,50,29.97,10.0,SW,11.5,17.3,N/A,,Clear,230,2012-10-06 15:55:00
12:55 PM,81.9,58.1,44,29.95,10.0,WSW,12.7,20.7,N/A,,Clear,240,2012-10-06 16:55:00
1:55 PM,82.2,58.8,45,29.92,10.0,West,10.4,17.3,N/A,,Clear,270,2012-10-06 17:55:00
2:55 PM,82.9,58.5,43,29.91,10.0,SSW,8.1,-,N/A,,Clear,210,2012-10-06 18:55:00
3:55 PM,82.4,59.5,46,29.90,10.0,Variable,5.8,-,N/A,,Scattered Clouds,0,2012-10-06 19:55:00
4:55 PM,82.4,59.2,45,29.90,10.0,SW,8.1,-,N/A,,Partly Cloudy,230,2012-10-06 20:55:00
5:55 PM,81.1,60.3,49,29.90,10.0,West,3.5,-,N/A,,Clear,260,2012-10-06 21:55:00
6:55 PM,75.7,65.5,70,29.92,10.0,East,1.2,-,N/A,,Clear,100,2012-10-06 22:55:00
7:55 PM,69.4,65.5,87,29.94,10.0,South,1.2,-,N/A,,Clear,170,2012-10-06 23:55:00
8:55 PM,67.8,64.9,90,29.94,10.0,SE,1.2,-,N/A,,Scattered Clouds,140,2012-10-07 00:55:00
9:55 PM,66.4,64.2,93,29.95,8.0,SE,1.2,-,N/A,,Partly Cloudy,140,2012-10-07 01:55:00
10:55 PM,66.0,64.2,94,29.96,8.0,North,2.3,-,N/A,,Mostly Cloudy,10,2012-10-07 02:55:00
11:55 PM,67.8,63.9,87,29.96,10.0,NNE,6.9,-,N/A,,Mostly Cloudy,20,2012-10-07 03:55:00